Time,TemperatureF,DewpointF,PressureIn,WindDirection,WindDirectionDegrees,WindSpeedMPH,WindSpeedGustMPH,Humidity,HourlyPrecipIn,Conditions,Clouds,dailyrainin,SoftwareType,DateUTC
2013-09-23 00:00:00,28.0,28.0,-100.00,West,267,8.0,20.0,99,-99.99,,,-99.99,,2013-09-23 06:00:00,
2013-09-23 00:52:00,28.0,28.0,-100.00,West,267,8.0,20.0,99,-99.99,,,-99.99,,2013-09-23 06:52:00,
2013-09-23 04:00:00,26.0,26.0,-100.00,WNW,296,14.0,35.0,100,-99.99,,,-99.99,,2013-09-23 10:00:00,
2013-09-23 04:53:00,26.0,26.0,-100.00,WNW,296,14.0,35.0,100,-99.99,,,-99.99,,2013-09-23 10:53:00,
2013-09-23 06:00:00,26.0,26.0,-100.00,WNW,294,31.0,61.0,99,-99.99,,,-99.99,,2013-09-23 12:00:00,
2013-09-23 06:52:00,26.0,26.0,-100.00,WNW,294,31.0,61.0,99,-99.99,,,-99.99,,2013-09-23 12:52:00,
2013-09-23 08:00:00,24.0,24.0,-100.00,WNW,302,24.0,55.0,98,-99.99,,,-99.99,,2013-09-23 14:00:00,
2013-09-23 08:52:00,24.0,24.0,-100.00,WNW,302,24.0,55.0,98,-99.99,,,-99.99,,2013-09-23 14:52:00,
2013-09-23 10:00:00,23.0,23.0,-100.00,WNW,288,28.0,52.0,100,-99.99,,,-99.99,,2013-09-23 16:00:00,
2013-09-23 10:53:00,23.0,23.0,-100.00,WNW,288,28.0,52.0,100,-99.99,,,-99.99,,2013-09-23 16:53:00,
2013-09-23 13:00:00,23.0,23.0,-100.00,WNW,290,27.0,49.0,97,-99.99,,,-99.99,,2013-09-23 19:00:00,
2013-09-23 13:53:00,23.0,23.0,-100.00,WNW,290,27.0,49.0,97,-99.99,,,-99.99,,2013-09-23 19:53:00,
2013-09-23 15:00:00,25.0,23.0,-100.00,WNW,299,24.0,46.0,93,-99.99,,,-99.99,,2013-09-23 21:00:00,
2013-09-23 15:54:00,25.0,23.0,-100.00,WNW,299,24.0,46.0,93,-99.99,,,-99.99,,2013-09-23 21:54:00,
2013-09-23 17:00:00,28.0,23.0,-100.00,WNW,291,28.0,47.0,80,-99.99,,,-99.99,,2013-09-23 23:00:00,
2013-09-23 17:54:00,28.0,23.0,-100.00,WNW,291,28.0,47.0,80,-99.99,,,-99.99,,2013-09-23 23:54:00,
2013-09-23 19:00:00,28.0,23.0,-100.00,WNW,291,29.0,42.0,80,-99.99,,,-99.99,,2013-09-24 01:00:00,
2013-09-23 19:52:00,28.0,23.0,-100.00,WNW,291,29.0,42.0,80,-99.99,,,-99.99,,2013-09-24 01:52:00,
2013-09-23 22:00:00,28.0,21.0,-100.00,WNW,287,22.0,40.0,75,-99.99,,,-99.99,,2013-09-24 04:00:00,
2013-09-23 22:54:00,28.0,21.0,-100.00,WNW,287,22.0,40.0,75,-99.99,,,-99.99,,2013-09-24 04:54:00,
2013-09-23 23:00:00,28.0,21.0,-100.00,WNW,289,19.0,28.0,73,-99.99,,,-99.99,,2013-09-24 05:00:00,
2013-09-23 23:53:00,28.0,21.0,-100.00,WNW,289,19.0,28.0,73,-99.99,,,-99.99,,2013-09-24 05:53:00,